createdAt,value
2017-09-09T00:00:49.989Z,996.1
2017-09-09T00:01:51.500Z,996.1
2017-09-09T00:02:52.946Z,996.1
2017-09-09T00:03:54.656Z,996.1
2017-09-09T00:04:56.092Z,996.1
2017-09-09T00:05:57.822Z,996.1
2017-09-09T00:06:59.215Z,996.1
2017-09-09T00:08:00.731Z,996.0
2017-09-09T00:09:02.176Z,996.1
2017-09-09T00:10:03.868Z,996.0
2017-09-09T00:11:05.299Z,996.0
2017-09-09T00:12:06.758Z,996.0
2017-09-09T00:13:08.194Z,996.0
2017-09-09T00:14:09.669Z,996.0
2017-09-09T00:15:11.076Z,996.0
2017-09-09T00:16:12.518Z,996.0
2017-09-09T00:17:13.954Z,996.0
2017-09-09T00:18:15.404Z,996.0
2017-09-09T00:19:16.857Z,996.0
2017-09-09T00:20:18.286Z,996.0
2017-09-09T00:21:19.725Z,996.0
2017-09-09T00:22:21.209Z,995.9
2017-09-09T00:23:22.651Z,995.9
2017-09-09T00:24:24.353Z,995.9
2017-09-09T00:25:25.775Z,995.9
2017-09-09T00:26:27.273Z,995.9
2017-09-09T00:27:28.703Z,995.9
2017-09-09T00:28:30.486Z,995.9
2017-09-09T00:29:31.962Z,995.9
2017-09-09T00:30:33.656Z,996.0
2017-09-09T00:31:35.090Z,995.9
2017-09-09T00:32:36.806Z,995.9
2017-09-09T00:33:38.249Z,995.9
2017-09-09T00:34:39.669Z,995.9
2017-09-09T00:35:41.083Z,995.9
2017-09-09T00:36:42.558Z,995.9
2017-09-09T00:37:43.992Z,995.9
2017-09-09T00:38:45.456Z,995.9
2017-09-09T00:39:46.862Z,995.9
2017-09-09T00:40:48.335Z,995.9
2017-09-09T00:41:49.786Z,995.9
2017-09-09T00:42:51.531Z,995.8
2017-09-09T00:43:52.947Z,995.9
2017-09-09T00:44:54.380Z,995.8
2017-09-09T00:45:55.871Z,995.8
2017-09-09T00:46:57.599Z,995.8
2017-09-09T00:47:59.035Z,995.8
2017-09-09T00:49:00.818Z,995.8
2017-09-09T00:50:02.306Z,995.8
2017-09-09T00:51:04.015Z,995.7
2017-09-09T00:52:05.424Z,995.7
2017-09-09T00:53:07.331Z,995.7
2017-09-09T00:54:08.987Z,995.7
2017-09-09T00:55:10.815Z,995.7
2017-09-09T00:56:12.202Z,995.7
2017-09-09T00:57:13.816Z,995.7
2017-09-09T00:58:15.305Z,995.8
2017-09-09T00:59:17.033Z,995.7
2017-09-09T01:00:18.456Z,995.7
2017-09-09T01:01:20.186Z,995.7
2017-09-09T01:02:21.612Z,995.7
2017-09-09T01:03:23.067Z,995.7
2017-09-09T01:04:24.495Z,995.8
2017-09-09T01:05:25.962Z,995.8
2017-09-09T01:06:27.391Z,995.8
2017-09-09T01:07:28.809Z,996.0
2017-09-09T01:08:30.242Z,996.1
2017-09-09T01:09:31.732Z,996.1
2017-09-09T01:10:33.144Z,995.7
2017-09-09T01:11:34.605Z,995.7
2017-09-09T01:12:36.035Z,995.7
2017-09-09T01:13:37.482Z,995.7
2017-09-09T01:14:38.932Z,995.7
2017-09-09T01:15:40.662Z,995.7
2017-09-09T01:16:42.077Z,995.6
2017-09-09T01:17:43.605Z,995.6
2017-09-09T01:18:45.023Z,995.6
2017-09-09T01:19:46.754Z,995.6
2017-09-09T01:20:48.209Z,995.5
2017-09-09T01:21:49.915Z,995.5
2017-09-09T01:22:51.319Z,995.5
2017-09-09T01:23:52.811Z,995.5
2017-09-09T01:24:54.226Z,995.5
2017-09-09T01:25:55.670Z,995.5
2017-09-09T01:26:57.101Z,995.5
2017-09-09T01:27:58.562Z,995.5
2017-09-09T01:28:59.974Z,995.4
2017-09-09T01:30:01.445Z,995.4
2017-09-09T01:31:02.841Z,995.5
2017-09-09T01:32:04.448Z,995.5
2017-09-09T01:33:05.881Z,995.5
2017-09-09T01:34:07.524Z,995.5
2017-09-09T01:35:08.969Z,995.5
2017-09-09T01:36:10.705Z,995.4
2017-09-09T01:37:12.118Z,995.4
2017-09-09T01:38:13.574Z,995.4
2017-09-09T01:39:14.996Z,995.4
2017-09-09T01:40:16.439Z,995.4
2017-09-09T01:41:17.856Z,995.3
2017-09-09T01:42:19.345Z,995.3
2017-09-09T01:43:20.788Z,995.3
2017-09-09T01:44:22.243Z,995.3
2017-09-09T01:45:23.654Z,995.3
2017-09-09T01:46:25.119Z,995.3
2017-09-09T01:47:26.567Z,995.3
2017-09-09T01:48:28.352Z,995.3
2017-09-09T01:49:29.739Z,995.3
2017-09-09T01:50:31.526Z,995.3
2017-09-09T01:51:32.951Z,995.2
2017-09-09T01:52:34.655Z,995.2
2017-09-09T01:53:36.092Z,995.2
2017-09-09T01:54:37.562Z,995.2
2017-09-09T01:55:38.994Z,995.2
2017-09-09T01:56:40.422Z,995.2
2017-09-09T01:57:41.849Z,995.2
2017-09-09T01:58:43.351Z,995.2
2017-09-09T01:59:44.767Z,995.2
2017-09-09T02:00:46.502Z,995.2
2017-09-09T02:01:48.015Z,995.1
2017-09-09T02:02:49.717Z,995.1
2017-09-09T02:03:51.148Z,995.1
2017-09-09T02:04:52.879Z,995.1
2017-09-09T02:05:54.318Z,995.1
2017-09-09T02:06:55.713Z,995.1
2017-09-09T02:07:57.125Z,995.0
2017-09-09T02:08:58.651Z,995.0
2017-09-09T02:10:00.105Z,995.0
2017-09-09T02:11:01.836Z,995.0
2017-09-09T02:12:03.253Z,995.0
2017-09-09T02:13:04.708Z,995.0
2017-09-09T02:14:06.125Z,994.9
2017-09-09T02:15:07.564Z,995.0
2017-09-09T02:16:09.028Z,995.0
2017-09-09T02:17:10.472Z,995.0
2017-09-09T02:18:11.874Z,994.9
2017-09-09T02:19:13.345Z,994.9
2017-09-09T02:20:14.753Z,994.8
2017-09-09T02:21:16.235Z,994.8
2017-09-09T02:22:17.675Z,994.8
2017-09-09T02:23:19.397Z,994.8
2017-09-09T02:24:20.826Z,994.8
2017-09-09T02:25:22.278Z,994.8
2017-09-09T02:26:23.693Z,994.8
2017-09-09T02:27:25.175Z,994.8
2017-09-09T02:28:26.646Z,994.8
2017-09-09T02:29:28.363Z,994.8
2017-09-09T02:30:29.794Z,994.8
2017-09-09T02:31:31.289Z,994.8
2017-09-09T02:32:32.730Z,994.8
2017-09-09T02:33:34.409Z,994.8
2017-09-09T02:34:35.809Z,994.7
2017-09-09T02:35:37.295Z,994.8
2017-09-09T02:36:38.736Z,994.8
2017-09-09T02:37:40.199Z,994.8
2017-09-09T02:38:41.647Z,994.8
2017-09-09T02:39:43.360Z,994.8
2017-09-09T02:40:44.798Z,994.8
2017-09-09T02:41:46.234Z,994.8
2017-09-09T02:42:47.692Z,994.8
2017-09-09T02:43:49.102Z,994.8
2017-09-09T02:44:50.579Z,994.8
2017-09-09T02:45:52.000Z,994.8
2017-09-09T02:46:53.432Z,994.8
2017-09-09T02:47:54.893Z,994.8
2017-09-09T02:48:56.317Z,994.8
2017-09-09T02:49:57.817Z,994.8
2017-09-09T02:50:59.240Z,994.8
2017-09-09T02:52:00.961Z,994.8
2017-09-09T02:53:02.377Z,994.8
2017-09-09T02:54:03.896Z,994.7
2017-09-09T02:55:05.336Z,994.6
2017-09-09T02:56:07.026Z,994.7
2017-09-09T02:57:08.436Z,994.7
2017-09-09T02:58:09.926Z,994.7
2017-09-09T02:59:11.353Z,994.7
2017-09-09T03:00:12.842Z,994.6
2017-09-09T03:01:14.264Z,994.6
2017-09-09T03:02:15.956Z,994.6
2017-09-09T03:03:17.394Z,994.6
2017-09-09T03:04:18.872Z,994.5
2017-09-09T03:05:20.327Z,994.5
2017-09-09T03:06:22.030Z,994.5
2017-09-09T03:07:23.452Z,994.6
2017-09-09T03:08:24.920Z,994.5
2017-09-09T03:09:26.355Z,994.5
2017-09-09T03:10:27.795Z,994.5
2017-09-09T03:11:29.230Z,994.4
2017-09-09T03:12:30.711Z,994.4
2017-09-09T03:13:32.141Z,994.4
2017-09-09T03:14:33.911Z,994.4
2017-09-09T03:15:35.371Z,994.3
2017-09-09T03:16:37.090Z,994.3
2017-09-09T03:17:38.483Z,994.3
2017-09-09T03:18:39.952Z,994.3
2017-09-09T03:19:41.372Z,994.3
2017-09-09T03:20:42.805Z,994.3
2017-09-09T03:21:44.282Z,994.3
2017-09-09T03:22:46.029Z,994.3
2017-09-09T03:23:47.471Z,994.3
2017-09-09T03:24:49.233Z,994.3
2017-09-09T03:25:50.680Z,994.3
2017-09-09T03:26:52.408Z,994.3
2017-09-09T03:27:53.865Z,994.3
2017-09-09T03:28:55.562Z,994.2
2017-09-09T03:29:57.000Z,994.2
2017-09-09T03:30:58.451Z,994.2
2017-09-09T03:31:59.888Z,994.2
2017-09-09T03:33:01.339Z,994.2
2017-09-09T03:34:02.778Z,994.2
2017-09-09T03:35:04.238Z,994.2
2017-09-09T03:36:05.669Z,994.1
2017-09-09T03:37:07.409Z,994.2
2017-09-09T03:38:08.849Z,994.2
2017-09-09T03:39:10.291Z,994.1
2017-09-09T03:40:11.720Z,994.2
2017-09-09T03:41:13.181Z,994.1
2017-09-09T03:42:14.650Z,994.1
2017-09-09T03:43:16.357Z,994.0
2017-09-09T03:44:17.794Z,994.0
2017-09-09T03:45:19.257Z,994.0
2017-09-09T03:46:20.671Z,994.0
2017-09-09T03:47:22.117Z,994.0
2017-09-09T03:48:23.572Z,993.9
2017-09-09T03:49:25.294Z,994.0
2017-09-09T03:50:26.716Z,994.0
2017-09-09T03:51:28.185Z,994.0
2017-09-09T03:52:29.618Z,994.0
2017-09-09T03:53:31.362Z,994.0
2017-09-09T03:54:32.805Z,994.0
2017-09-09T03:55:34.266Z,994.0
2017-09-09T03:56:35.697Z,994.0
2017-09-09T03:57:37.143Z,993.9
2017-09-09T03:58:38.590Z,993.9
2017-09-09T03:59:40.311Z,993.9
2017-09-09T04:00:41.720Z,993.9
2017-09-09T04:01:43.230Z,993.9
2017-09-09T04:02:44.668Z,993.9
2017-09-09T04:03:46.396Z,993.9
2017-09-09T04:04:47.820Z,993.9
2017-09-09T04:05:49.603Z,993.9
2017-09-09T04:06:51.010Z,993.8
2017-09-09T04:07:52.475Z,993.9
2017-09-09T04:08:53.897Z,993.9
2017-09-09T04:09:55.345Z,993.9
2017-09-09T04:10:56.821Z,993.8
2017-09-09T04:11:58.514Z,993.9
2017-09-09T04:12:59.947Z,993.9
2017-09-09T04:14:01.402Z,993.9
2017-09-09T04:15:02.883Z,993.8
2017-09-09T04:16:04.609Z,993.9
2017-09-09T04:17:06.016Z,993.8
2017-09-09T04:18:07.480Z,993.8
2017-09-09T04:19:08.923Z,993.8
2017-09-09T04:20:10.665Z,993.8
2017-09-09T04:21:12.074Z,993.8
2017-09-09T04:22:13.535Z,993.8
2017-09-09T04:23:14.968Z,993.8
2017-09-09T04:24:16.467Z,993.8
2017-09-09T04:25:17.885Z,993.8
2017-09-09T04:26:19.612Z,993.8
2017-09-09T04:27:21.065Z,993.8
2017-09-09T04:28:22.497Z,993.7
2017-09-09T04:29:23.911Z,993.7
2017-09-09T04:30:25.358Z,993.8
2017-09-09T04:31:26.790Z,993.7
2017-09-09T04:32:28.261Z,993.8
2017-09-09T04:33:29.691Z,993.8
2017-09-09T04:34:31.118Z,993.7
2017-09-09T04:35:32.522Z,993.7
2017-09-09T04:36:34.033Z,993.7
2017-09-09T04:37:35.467Z,993.7
2017-09-09T04:38:37.169Z,993.8
2017-09-09T04:39:38.593Z,993.7
2017-09-09T04:40:40.094Z,993.8
2017-09-09T04:41:41.504Z,993.7
2017-09-09T04:42:43.002Z,993.7
2017-09-09T04:43:44.497Z,993.7
2017-09-09T04:44:46.144Z,993.8
2017-09-09T04:45:47.598Z,993.7
2017-09-09T04:46:49.334Z,993.7
2017-09-09T04:47:50.736Z,993.7
2017-09-09T04:48:52.227Z,993.7
2017-09-09T04:49:53.649Z,993.7
2017-09-09T04:50:55.228Z,993.7
2017-09-09T04:51:56.638Z,993.7
2017-09-09T04:52:58.307Z,993.7
2017-09-09T04:54:00.101Z,993.7
2017-09-09T04:55:01.866Z,993.8
2017-09-09T04:56:03.292Z,993.7
2017-09-09T04:57:04.954Z,993.7
2017-09-09T04:58:06.369Z,993.7
2017-09-09T04:59:07.839Z,993.7
2017-09-09T05:00:09.283Z,993.7
2017-09-09T05:01:10.787Z,993.7
2017-09-09T05:02:12.219Z,993.7
2017-09-09T05:03:13.901Z,993.8
2017-09-09T05:04:15.358Z,993.7
2017-09-09T05:05:16.806Z,993.7
2017-09-09T05:06:18.217Z,993.7
2017-09-09T05:07:19.667Z,993.8
2017-09-09T05:08:21.105Z,993.7
2017-09-09T05:09:22.546Z,993.7
2017-09-09T05:10:24.028Z,993.7
2017-09-09T05:11:25.753Z,993.8
2017-09-09T05:12:27.227Z,993.7
2017-09-09T05:13:28.974Z,993.7
2017-09-09T05:14:30.435Z,993.7
2017-09-09T05:15:32.086Z,993.7
2017-09-09T05:16:33.486Z,993.7
2017-09-09T05:17:35.012Z,993.7
2017-09-09T05:18:36.443Z,993.7
2017-09-09T05:19:38.161Z,993.7
2017-09-09T05:20:39.584Z,993.7
2017-09-09T05:21:41.062Z,993.7
2017-09-09T05:22:42.488Z,993.7
2017-09-09T05:23:43.948Z,993.7
2017-09-09T05:24:45.385Z,993.8
2017-09-09T05:25:47.118Z,993.7
2017-09-09T05:26:48.539Z,993.7
2017-09-09T05:27:50.037Z,993.7
2017-09-09T05:28:51.458Z,993.7
2017-09-09T05:29:53.210Z,993.7
2017-09-09T05:30:54.665Z,993.8
2017-09-09T05:31:56.430Z,993.8
2017-09-09T05:32:57.846Z,993.8
2017-09-09T05:33:59.608Z,993.8
2017-09-09T05:35:01.039Z,993.8
2017-09-09T05:36:02.757Z,993.8
2017-09-09T05:37:04.168Z,993.7
2017-09-09T05:38:05.699Z,993.7
2017-09-09T05:39:07.142Z,993.7
2017-09-09T05:40:08.835Z,993.7
2017-09-09T05:41:10.270Z,993.8
2017-09-09T05:42:11.742Z,993.7
2017-09-09T05:43:13.213Z,993.8
2017-09-09T05:44:14.900Z,993.8
2017-09-09T05:45:16.324Z,993.8
2017-09-09T05:46:17.786Z,993.8
2017-09-09T05:47:19.204Z,993.8
2017-09-09T05:48:20.681Z,993.7
2017-09-09T05:49:22.109Z,993.8
2017-09-09T05:50:23.544Z,993.7
2017-09-09T05:51:25.010Z,993.7
2017-09-09T05:52:26.727Z,993.7
2017-09-09T05:53:28.158Z,993.7
2017-09-09T05:54:29.653Z,993.7
2017-09-09T05:55:31.080Z,993.7
2017-09-09T05:56:32.869Z,993.7
2017-09-09T05:57:34.278Z,993.7
2017-09-09T05:58:36.006Z,993.6
2017-09-09T05:59:37.425Z,993.6
2017-09-09T06:00:39.160Z,993.6
2017-09-09T06:01:40.568Z,993.5
2017-09-09T06:02:42.049Z,993.5
2017-09-09T06:03:43.488Z,993.5
2017-09-09T06:04:44.910Z,993.6
2017-09-09T06:05:46.337Z,993.6
2017-09-09T06:06:47.832Z,993.7
2017-09-09T06:07:49.281Z,993.6
2017-09-09T06:08:51.062Z,993.6
2017-09-09T06:09:52.459Z,993.6
2017-09-09T06:10:54.190Z,993.7
2017-09-09T06:11:55.631Z,993.7
2017-09-09T06:12:57.351Z,993.7
2017-09-09T06:13:58.744Z,993.7
2017-09-09T06:15:00.285Z,993.7
2017-09-09T06:16:01.820Z,993.7
2017-09-09T06:17:03.446Z,993.7
2017-09-09T06:18:04.898Z,993.7
2017-09-09T06:19:06.666Z,993.7
2017-09-09T06:20:08.088Z,993.6
2017-09-09T06:21:09.848Z,993.7
2017-09-09T06:22:11.287Z,993.7
2017-09-09T06:23:13.007Z,993.7
2017-09-09T06:24:14.451Z,993.7
2017-09-09T06:25:16.194Z,993.7
2017-09-09T06:26:17.605Z,993.7
2017-09-09T06:27:19.055Z,993.7
2017-09-09T06:28:20.471Z,993.7
2017-09-09T06:29:21.976Z,993.7
2017-09-09T06:30:23.423Z,993.6
2017-09-09T06:31:25.177Z,993.7
2017-09-09T06:32:26.600Z,993.7
2017-09-09T06:33:28.395Z,993.7
2017-09-09T06:34:29.877Z,993.7
2017-09-09T06:35:31.513Z,993.7
2017-09-09T06:36:33.029Z,993.7
2017-09-09T06:37:34.714Z,993.7
2017-09-09T06:38:36.158Z,993.6
2017-09-09T06:39:37.892Z,993.6
2017-09-09T06:40:39.309Z,993.7
2017-09-09T06:41:40.838Z,993.7
2017-09-09T06:42:42.278Z,993.7
2017-09-09T06:43:44.009Z,993.7
2017-09-09T06:44:45.466Z,993.6
2017-09-09T06:45:47.154Z,993.6
2017-09-09T06:46:48.644Z,993.7
2017-09-09T06:47:50.349Z,993.6
2017-09-09T06:48:51.794Z,993.6
2017-09-09T06:49:53.550Z,993.6
2017-09-09T06:50:54.997Z,993.6
2017-09-09T06:51:56.763Z,993.6
2017-09-09T06:52:58.229Z,993.6
2017-09-09T06:53:59.923Z,993.6
2017-09-09T06:55:01.363Z,993.6
2017-09-09T06:56:03.100Z,993.7
2017-09-09T06:57:04.508Z,993.7
2017-09-09T06:58:05.948Z,993.7
2017-09-09T06:59:07.376Z,993.7
2017-09-09T07:00:08.870Z,993.8
2017-09-09T07:01:10.300Z,993.7
2017-09-09T07:02:12.046Z,993.7
2017-09-09T07:03:13.468Z,993.7
2017-09-09T07:04:14.918Z,993.8
2017-09-09T07:05:16.332Z,993.7
2017-09-09T07:06:17.805Z,993.7
2017-09-09T07:07:19.254Z,993.7
2017-09-09T07:08:20.963Z,993.8
2017-09-09T07:09:22.406Z,993.8
2017-09-09T07:10:23.846Z,993.7
2017-09-09T07:11:25.273Z,993.7
2017-09-09T07:12:26.879Z,993.7
2017-09-09T07:13:28.307Z,993.8
2017-09-09T07:14:29.913Z,993.8
2017-09-09T07:15:31.335Z,993.9
2017-09-09T07:16:32.836Z,993.8
2017-09-09T07:17:34.250Z,993.9
2017-09-09T07:18:35.700Z,993.8
2017-09-09T07:19:37.143Z,993.8
2017-09-09T07:20:38.881Z,993.9
2017-09-09T07:21:40.298Z,993.8
2017-09-09T07:22:41.805Z,993.8
2017-09-09T07:23:43.234Z,993.9
2017-09-09T07:24:44.961Z,993.9
2017-09-09T07:25:46.437Z,993.9
2017-09-09T07:26:48.160Z,993.8
2017-09-09T07:27:49.643Z,993.9
2017-09-09T07:28:51.360Z,993.9
2017-09-09T07:29:52.823Z,994.0
2017-09-09T07:30:54.515Z,994.0
2017-09-09T07:31:55.941Z,993.9
2017-09-09T07:32:57.384Z,993.9
2017-09-09T07:33:58.832Z,993.9
2017-09-09T07:35:00.577Z,993.9
2017-09-09T07:36:02.037Z,993.9
2017-09-09T07:37:03.814Z,994.0
2017-09-09T07:38:05.254Z,993.9
2017-09-09T07:39:06.977Z,993.9
2017-09-09T07:40:08.407Z,993.9
2017-09-09T07:41:10.154Z,993.9
2017-09-09T07:42:11.575Z,993.9
2017-09-09T07:43:13.073Z,993.9
2017-09-09T07:44:14.525Z,993.9
2017-09-09T07:45:16.231Z,994.0
2017-09-09T07:46:17.731Z,994.1
2017-09-09T07:47:19.424Z,994.1
2017-09-09T07:48:20.913Z,994.2
2017-09-09T07:49:24.835Z,994.2
2017-09-09T07:50:26.257Z,994.1
2017-09-09T07:51:28.005Z,994.2
2017-09-09T07:52:29.464Z,994.1
2017-09-09T07:53:31.145Z,994.1
2017-09-09T07:54:32.601Z,994.1
2017-09-09T07:55:34.313Z,994.1
2017-09-09T07:56:35.722Z,994.1
2017-09-09T07:57:37.214Z,994.1
2017-09-09T07:58:38.680Z,994.2
2017-09-09T07:59:40.432Z,994.3
2017-09-09T08:00:41.840Z,994.3
2017-09-09T08:01:43.555Z,994.4
2017-09-09T08:02:45.013Z,994.3
2017-09-09T08:03:46.785Z,994.5
2017-09-09T08:04:48.199Z,994.6
2017-09-09T08:05:50.936Z,994.6
2017-09-09T08:06:52.361Z,994.4
2017-09-09T08:07:54.037Z,994.4
2017-09-09T08:08:55.489Z,994.6
2017-09-09T08:09:57.239Z,994.8
2017-09-09T08:10:58.678Z,995.0
2017-09-09T08:12:00.431Z,995.2
2017-09-09T08:13:01.873Z,995.1
2017-09-09T08:14:03.628Z,995.0
2017-09-09T08:15:05.054Z,995.1
2017-09-09T08:16:06.835Z,997.2
2017-09-09T08:17:08.237Z,995.1
2017-09-09T08:18:10.004Z,996.7
2017-09-09T08:19:11.444Z,995.9
2017-09-09T08:20:13.153Z,995.4
2017-09-09T08:21:14.580Z,995.1
2017-09-09T08:22:16.091Z,995.2
2017-09-09T08:23:17.523Z,995.2
2017-09-09T08:24:19.243Z,997.7
2017-09-09T08:25:20.719Z,997.4
2017-09-09T08:26:22.414Z,997.8
2017-09-09T08:27:23.886Z,995.8
2017-09-09T08:28:25.633Z,996.6
2017-09-09T08:29:27.114Z,995.3
2017-09-09T08:30:28.774Z,995.1
2017-09-09T08:31:30.186Z,995.1
2017-09-09T08:32:31.675Z,995.3
2017-09-09T08:33:33.080Z,995.1
2017-09-09T08:34:34.519Z,995.1
2017-09-09T08:35:35.965Z,995.1
2017-09-09T08:36:37.431Z,996.8
2017-09-09T08:37:38.842Z,997.1
2017-09-09T08:38:40.344Z,995.8
2017-09-09T08:39:41.802Z,995.4
2017-09-09T08:40:43.479Z,995.0
2017-09-09T08:41:44.902Z,995.0
2017-09-09T08:42:46.371Z,994.9
2017-09-09T08:43:47.849Z,994.9
2017-09-09T08:44:49.556Z,995.5
2017-09-09T08:45:51.064Z,995.8
2017-09-09T08:46:52.709Z,995.3
2017-09-09T08:47:54.173Z,995.2
2017-09-09T08:48:55.614Z,995.3
2017-09-09T08:49:57.053Z,996.2
2017-09-09T08:50:58.600Z,995.7
2017-09-09T08:52:00.075Z,995.3
2017-09-09T08:53:01.706Z,995.4
2017-09-09T08:54:03.152Z,995.3
2017-09-09T08:55:04.894Z,995.5
2017-09-09T08:56:06.331Z,995.3
2017-09-09T08:57:07.822Z,996.3
2017-09-09T08:58:09.240Z,995.7
2017-09-09T08:59:10.917Z,995.3
2017-09-09T09:00:12.405Z,995.2
2017-09-09T09:01:14.137Z,995.4
2017-09-09T09:02:15.561Z,995.7
2017-09-09T09:03:17.023Z,995.6
2017-09-09T09:04:18.452Z,995.5
2017-09-09T09:05:19.895Z,995.4
2017-09-09T09:06:21.340Z,995.4
2017-09-09T09:07:22.843Z,995.4
2017-09-09T09:08:24.266Z,995.4
2017-09-09T09:09:25.984Z,995.4
2017-09-09T09:10:27.424Z,995.7
2017-09-09T09:11:29.175Z,995.8
2017-09-09T09:12:30.574Z,995.7
2017-09-09T09:13:32.049Z,995.5
2017-09-09T09:14:33.521Z,995.4
2017-09-09T09:15:35.217Z,995.4
2017-09-09T09:16:36.797Z,995.6
2017-09-09T09:17:38.434Z,995.8
2017-09-09T09:18:39.893Z,995.6
2017-09-09T09:19:41.665Z,995.7
2017-09-09T09:20:43.108Z,995.9
2017-09-09T09:21:44.962Z,996.0
2017-09-09T09:22:46.379Z,996.1
2017-09-09T09:23:48.018Z,996.1
2017-09-09T09:24:49.442Z,997.6
2017-09-09T09:25:51.187Z,996.3
2017-09-09T09:26:52.652Z,996.3
2017-09-09T09:27:54.427Z,996.1
2017-09-09T09:28:55.907Z,996.1
2017-09-09T09:29:57.546Z,995.9
2017-09-09T09:30:58.981Z,995.8
2017-09-09T09:32:00.454Z,995.8
2017-09-09T09:33:01.903Z,995.9
2017-09-09T09:34:03.660Z,996.0
2017-09-09T09:35:05.071Z,996.1
2017-09-09T09:36:06.809Z,997.3
2017-09-09T09:37:08.299Z,997.8
2017-09-09T09:38:10.014Z,996.2
2017-09-09T09:39:11.435Z,996.2
2017-09-09T09:40:13.214Z,996.8
2017-09-09T09:41:14.664Z,998.0
2017-09-09T09:42:16.352Z,996.1
2017-09-09T09:43:17.738Z,996.0
2017-09-09T09:44:19.143Z,996.0
2017-09-09T09:45:20.530Z,996.1
2017-09-09T09:46:21.992Z,996.0
2017-09-09T09:47:23.463Z,995.8
2017-09-09T09:48:24.884Z,995.7
2017-09-09T09:49:26.293Z,995.7
2017-09-09T09:50:27.737Z,995.6
2017-09-09T09:51:29.185Z,995.5
2017-09-09T09:52:30.607Z,995.5
2017-09-09T09:53:32.058Z,995.5
2017-09-09T09:54:33.477Z,995.5
2017-09-09T09:55:34.948Z,995.5
2017-09-09T09:56:36.375Z,995.5
2017-09-09T09:57:37.774Z,995.7
2017-09-09T09:58:39.235Z,995.9
2017-09-09T09:59:40.694Z,995.7
2017-09-09T10:00:42.138Z,995.5
2017-09-09T10:01:43.583Z,996.2
2017-09-09T10:02:45.014Z,995.8
2017-09-09T10:03:46.483Z,995.8
2017-09-09T10:04:47.910Z,995.6
2017-09-09T10:05:49.335Z,995.5
2017-09-09T10:06:50.791Z,995.5
2017-09-09T10:07:52.266Z,995.5
2017-09-09T10:08:53.729Z,995.6
2017-09-09T10:09:55.178Z,995.6
2017-09-09T10:10:56.666Z,995.7
2017-09-09T10:11:58.080Z,995.7
2017-09-09T10:12:59.486Z,995.7
2017-09-09T10:14:00.917Z,995.7
2017-09-09T10:15:02.389Z,995.8
2017-09-09T10:16:03.798Z,995.7
2017-09-09T10:17:05.208Z,995.7
2017-09-09T10:18:06.624Z,995.6
2017-09-09T10:19:08.054Z,995.7
2017-09-09T10:20:09.529Z,995.7
2017-09-09T10:21:10.933Z,995.9
2017-09-09T10:22:12.360Z,995.9
2017-09-09T10:23:13.830Z,996.0
2017-09-09T10:24:15.289Z,996.0
2017-09-09T10:25:16.772Z,996.0
2017-09-09T10:26:18.178Z,996.2
2017-09-09T10:27:19.630Z,996.2
2017-09-09T10:28:21.062Z,996.2
2017-09-09T10:29:22.495Z,996.6
2017-09-09T10:30:23.929Z,996.1
2017-09-09T10:31:25.377Z,996.2
2017-09-09T10:32:26.795Z,996.1
2017-09-09T10:33:28.259Z,995.9
2017-09-09T10:34:29.723Z,995.8
2017-09-09T10:35:31.164Z,996.0
2017-09-09T10:36:32.620Z,995.9
2017-09-09T10:37:34.056Z,995.8
2017-09-09T10:38:35.502Z,995.6
2017-09-09T10:39:36.935Z,995.7
2017-09-09T10:40:38.378Z,995.7
2017-09-09T10:41:39.835Z,995.9
2017-09-09T10:42:41.257Z,996.0
2017-09-09T10:43:42.704Z,996.1
2017-09-09T10:44:44.117Z,996.1
2017-09-09T10:45:45.647Z,996.2
2017-09-09T10:46:47.081Z,996.1
2017-09-09T10:47:48.520Z,996.1
2017-09-09T10:48:49.928Z,996.0
2017-09-09T10:49:51.373Z,996.1
2017-09-09T10:50:52.789Z,996.1
2017-09-09T10:51:54.285Z,996.1
2017-09-09T10:52:55.696Z,996.2
2017-09-09T10:53:57.154Z,996.2
2017-09-09T10:54:58.555Z,996.2
2017-09-09T10:56:00.036Z,996.2
2017-09-09T10:57:01.446Z,996.2
2017-09-09T10:58:02.906Z,996.3
2017-09-09T10:59:04.310Z,996.3
2017-09-09T11:00:05.803Z,996.4
2017-09-09T11:01:07.234Z,996.4
2017-09-09T11:02:08.702Z,996.3
2017-09-09T11:03:10.243Z,996.4
2017-09-09T11:04:11.745Z,996.4
2017-09-09T11:05:13.172Z,996.4
2017-09-09T11:06:14.621Z,996.4
2017-09-09T11:07:16.043Z,996.4
2017-09-09T11:08:17.521Z,996.3
2017-09-09T11:09:18.942Z,996.4
2017-09-09T11:10:20.408Z,996.2
2017-09-09T11:11:21.864Z,996.1
2017-09-09T11:12:23.415Z,996.1
2017-09-09T11:13:24.883Z,996.2
2017-09-09T11:14:26.385Z,996.1
2017-09-09T11:15:27.848Z,996.0
2017-09-09T11:16:29.362Z,996.1
2017-09-09T11:17:30.795Z,996.1
2017-09-09T11:18:32.282Z,996.1
2017-09-09T11:19:33.715Z,995.8
2017-09-09T11:20:35.222Z,996.0
2017-09-09T11:21:36.665Z,995.9
2017-09-09T11:22:38.145Z,996.0
2017-09-09T11:23:39.572Z,995.9
2017-09-09T11:24:41.078Z,995.8
2017-09-09T11:25:42.494Z,995.9
2017-09-09T11:26:44.044Z,995.9
2017-09-09T11:27:45.470Z,995.9
2017-09-09T11:28:46.955Z,995.9
2017-09-09T11:29:48.389Z,995.8
2017-09-09T11:30:49.846Z,995.9
2017-09-09T11:31:51.270Z,995.9
2017-09-09T11:32:52.721Z,995.9
2017-09-09T11:33:54.134Z,996.0
2017-09-09T11:34:55.613Z,995.9
2017-09-09T11:35:57.024Z,995.9
2017-09-09T11:36:58.481Z,995.9
2017-09-09T11:37:59.905Z,996.0
2017-09-09T11:39:01.375Z,995.9
2017-09-09T11:40:02.813Z,996.0
2017-09-09T11:41:04.226Z,996.0
2017-09-09T11:42:05.646Z,996.0
2017-09-09T11:43:07.128Z,996.0
2017-09-09T11:44:08.586Z,996.1
2017-09-09T11:45:10.109Z,996.2
2017-09-09T11:46:11.544Z,996.2
2017-09-09T11:47:12.982Z,996.3
2017-09-09T11:48:14.407Z,996.2
2017-09-09T11:49:15.875Z,996.1
2017-09-09T11:50:17.270Z,996.1
2017-09-09T11:51:18.793Z,996.0
2017-09-09T11:52:20.207Z,996.0
2017-09-09T11:53:21.673Z,996.0
2017-09-09T11:54:23.096Z,996.0
2017-09-09T11:55:24.696Z,996.1
2017-09-09T11:56:26.160Z,996.1
2017-09-09T11:57:27.643Z,996.1
2017-09-09T11:58:29.069Z,996.1
2017-09-09T11:59:30.623Z,996.1
2017-09-09T12:00:32.062Z,996.2
2017-09-09T12:01:33.607Z,996.2
2017-09-09T12:02:35.037Z,996.2
2017-09-09T12:03:36.540Z,996.1
2017-09-09T12:04:37.980Z,996.2
2017-09-09T12:05:39.498Z,996.2
2017-09-09T12:06:40.895Z,996.2
2017-09-09T12:07:42.483Z,996.2
2017-09-09T12:08:43.916Z,996.2
2017-09-09T12:09:45.443Z,996.3
2017-09-09T12:10:46.908Z,996.3
2017-09-09T12:11:48.427Z,996.3
2017-09-09T12:12:49.867Z,996.3
2017-09-09T12:13:51.416Z,996.3
2017-09-09T12:14:52.866Z,996.3
2017-09-09T12:15:54.341Z,996.3
2017-09-09T12:16:55.730Z,996.3
2017-09-09T12:17:57.269Z,996.3
2017-09-09T12:18:58.650Z,996.4
2017-09-09T12:20:00.158Z,996.4
2017-09-09T12:21:01.591Z,996.5
2017-09-09T12:22:03.068Z,996.5
2017-09-09T12:23:04.518Z,996.6
2017-09-09T12:24:06.034Z,996.6
2017-09-09T12:25:07.479Z,996.6
2017-09-09T12:26:08.995Z,996.6
2017-09-09T12:27:10.386Z,996.6
2017-09-09T12:28:11.860Z,996.7
2017-09-09T12:29:13.277Z,996.7
2017-09-09T12:30:14.772Z,996.8
2017-09-09T12:31:16.200Z,996.7
2017-09-09T12:32:17.642Z,996.8
2017-09-09T12:33:19.082Z,996.8
2017-09-09T12:34:20.582Z,996.8
2017-09-09T12:35:22.035Z,996.8
2017-09-09T12:36:23.475Z,996.7
2017-09-09T12:37:24.900Z,996.7
2017-09-09T12:38:26.415Z,996.6
2017-09-09T12:39:27.837Z,996.6
2017-09-09T12:40:29.362Z,996.6
2017-09-09T12:41:30.857Z,996.6
2017-09-09T12:42:32.358Z,996.6
2017-09-09T12:43:33.809Z,996.7
2017-09-09T12:44:35.335Z,996.7
2017-09-09T12:45:36.855Z,996.9
2017-09-09T12:46:38.353Z,996.9
2017-09-09T12:47:39.847Z,996.9
2017-09-09T12:48:41.341Z,996.9
2017-09-09T12:49:42.757Z,996.9
2017-09-09T12:50:44.295Z,996.9
2017-09-09T12:51:45.683Z,997.0
2017-09-09T12:52:47.208Z,996.9
2017-09-09T12:53:48.753Z,997.0
2017-09-09T12:54:50.302Z,996.9
2017-09-09T12:55:51.744Z,997.0
2017-09-09T12:56:53.261Z,997.0
2017-09-09T12:57:54.696Z,997.1
2017-09-09T12:58:56.260Z,997.1
2017-09-09T12:59:57.696Z,997.1
2017-09-09T13:00:59.195Z,997.1
2017-09-09T13:02:00.631Z,997.2
2017-09-09T13:03:02.069Z,997.2
2017-09-09T13:04:03.491Z,997.2
2017-09-09T13:05:04.984Z,997.2
2017-09-09T13:06:06.387Z,997.2
2017-09-09T13:07:07.848Z,997.2
2017-09-09T13:08:09.250Z,997.3
2017-09-09T13:09:10.724Z,997.3
2017-09-09T13:10:12.148Z,997.3
2017-09-09T13:11:13.619Z,997.3
2017-09-09T13:12:15.045Z,997.2